This is the latest recevied weather packets stored in our database for station/object AI5ON. If no packets are shown the sender has not sent any weather packets the latest 10 day(s).
| Time | Temp. | Humidity | Pressure | Rain* | Wind** | Luminosity | Snow |
|---|---|---|---|---|---|---|---|
| 1787928690 | 31.11° C | 71% | 1017 hPa | 0 mm | - | 401 W/m² | - |
| 1787928388 | 31.11° C | 72% | 1017.3 hPa | 0 mm | - | 497 W/m² | - |
| 1787928087 | 31.67° C | 72% | 1016.8 hPa | 0 mm | - | 481 W/m² | - |
| 1787927786 | 31.11° C | 72% | 1016.9 hPa | 0 mm | - | 460 W/m² | - |
| 1787927482 | 31.11° C | 73% | 1016.9 hPa | 0 mm | - | 441 W/m² | - |
| 1787927177 | 30.56° C | 75% | 1016.7 hPa | 0 mm | - | 419 W/m² | - |
| 1787926872 | 30.56° C | 74% | 1016.8 hPa | 0 mm | - | 405 W/m² | - |
| 1787926566 | 30° C | 77% | 1016.8 hPa | 0 mm | - | 380 W/m² | - |
| 1787926265 | 30° C | 77% | 1016.5 hPa | 0 mm | - | 328 W/m² | - |
| 1787925960 | 30° C | 78% | 1016.6 hPa | 0 mm | - | 274 W/m² | - |
| 1787925654 | 29.44° C | 80% | 1016.6 hPa | 0 mm | - | 230 W/m² | - |
| 1787925350 | 28.89° C | 82% | 1016.7 hPa | 0 mm | - | 197 W/m² | - |
| 1787925049 | 28.89° C | 80% | 1016.7 hPa | 0 mm | - | 171 W/m² | - |
| 1787924743 | 28.89° C | 81% | 1016.8 hPa | 0 mm | - | 152 W/m² | - |
| 1787924443 | 28.33° C | 83% | 1016.8 hPa | 0 mm | - | 137 W/m² | - |
| 1787924138 | 28.33° C | 84% | 1016.8 hPa | 0 mm | - | 127 W/m² | - |
| 1787923838 | 28.33° C | 84% | 1016.8 hPa | 0 mm | - | 123 W/m² | - |
| 1787923538 | 27.78° C | 85% | 1016.8 hPa | 0 mm | - | 121 W/m² | - |
| 1787923234 | 27.78° C | 86% | 1016.8 hPa | 0 mm | - | 119 W/m² | - |
| 1787922930 | 27.78° C | 87% | 1016.7 hPa | 0 mm | - | 117 W/m² | - |
| 1787922628 | 27.22° C | 88% | 1016.7 hPa | 0 mm | - | 116 W/m² | - |
| 1787922328 | 27.22° C | 88% | 1016.7 hPa | 0 mm | - | 113 W/m² | - |
| 1787922025 | 27.22° C | 89% | 1016.7 hPa | 0 mm | - | 109 W/m² | - |
| 1787921720 | 26.67° C | 91% | 1016.4 hPa | 0 mm | - | 103 W/m² | - |
| 1787921419 | 26.11° C | 94% | 1016.6 hPa | 0 mm | - | 95 W/m² | - |
* Rain latest hour (hover to see other rain measurements)
** Current wind speed in m/s (hover to see current wind gust speed)